createdAt,value
2022-10-13T00:01:58.612Z,2.97
2022-10-13T00:04:25.329Z,2.53
2022-10-13T00:06:52.210Z,2.47
2022-10-13T00:09:19.029Z,2.88
2022-10-13T00:11:45.864Z,2.72
2022-10-13T00:14:12.599Z,2.70
2022-10-13T00:16:39.688Z,3.22
2022-10-13T00:19:06.465Z,2.63
2022-10-13T00:21:33.167Z,2.80
2022-10-13T00:23:59.843Z,2.80
2022-10-13T00:26:26.942Z,1.90
2022-10-13T00:28:54.935Z,2.00
2022-10-13T00:31:22.960Z,1.88
2022-10-13T00:33:49.807Z,2.30
2022-10-13T00:36:16.661Z,2.50
2022-10-13T00:38:43.771Z,2.70
2022-10-13T00:41:10.589Z,2.00
2022-10-13T00:44:01.079Z,2.75
2022-10-13T00:46:30.237Z,2.25
2022-10-13T00:49:14.184Z,2.70
2022-10-13T00:51:47.749Z,2.75
2022-10-13T00:54:16.931Z,2.25
2022-10-13T00:56:43.608Z,2.65
2022-10-13T00:59:13.898Z,2.25
2022-10-13T01:01:40.610Z,1.67
2022-10-13T01:04:07.346Z,2.00
2022-10-13T01:06:34.084Z,2.00
2022-10-13T01:09:00.808Z,2.20
2022-10-13T01:11:49.179Z,1.55
2022-10-13T01:14:33.813Z,1.27
2022-10-13T01:17:13.853Z,1.45
2022-10-13T01:19:49.543Z,1.95
2022-10-13T01:22:35.059Z,0.98
2022-10-13T01:25:07.725Z,1.27
2022-10-13T01:27:39.876Z,1.70
2022-10-13T01:30:09.545Z,3.75
2022-10-13T01:32:43.283Z,3.95
2022-10-13T01:35:30.001Z,4.13
2022-10-13T01:38:10.463Z,2.97
2022-10-13T01:40:46.325Z,3.30
2022-10-13T01:43:27.804Z,3.22
2022-10-13T01:46:02.441Z,2.60
2022-10-13T01:48:29.332Z,3.30
2022-10-13T01:50:56.615Z,2.65
2022-10-13T01:53:23.667Z,2.58
2022-10-13T01:55:51.288Z,2.60
2022-10-13T01:58:18.001Z,2.38
2022-10-13T02:00:51.248Z,1.92
2022-10-13T02:03:23.843Z,2.05
2022-10-13T02:05:57.084Z,2.10
2022-10-13T02:08:25.943Z,1.52
2022-10-13T02:10:58.010Z,1.45
2022-10-13T02:13:26.504Z,1.60
2022-10-13T02:15:54.367Z,2.08
2022-10-13T02:18:23.639Z,1.80
2022-10-13T02:20:50.669Z,1.35
2022-10-13T02:23:18.150Z,1.10
2022-10-13T02:25:45.024Z,1.50
2022-10-13T02:28:12.850Z,2.10
2022-10-13T02:30:39.824Z,1.88
2022-10-13T02:33:06.608Z,1.73
2022-10-13T02:35:33.610Z,1.40
2022-10-13T02:38:00.600Z,1.50
2022-10-13T02:40:27.577Z,1.58
2022-10-13T02:42:54.367Z,1.77
2022-10-13T02:45:21.092Z,1.30
2022-10-13T02:47:47.804Z,1.70
2022-10-13T02:50:14.664Z,1.25
2022-10-13T02:52:41.379Z,1.65
2022-10-13T02:55:08.583Z,1.48
2022-10-13T02:57:35.367Z,1.65
2022-10-13T03:00:02.197Z,2.30
2022-10-13T03:02:28.953Z,1.60
2022-10-13T03:04:56.066Z,1.70
2022-10-13T03:07:22.822Z,2.05
2022-10-13T03:09:49.847Z,1.80
2022-10-13T03:12:16.673Z,2.08
2022-10-13T03:14:43.794Z,2.67
2022-10-13T03:17:13.435Z,1.80
2022-10-13T03:19:40.435Z,1.25
2022-10-13T03:22:07.091Z,1.98
2022-10-13T03:24:33.766Z,2.28
2022-10-13T03:27:00.478Z,1.90
2022-10-13T03:29:27.219Z,2.05
2022-10-13T03:31:53.955Z,1.85
2022-10-13T03:34:20.625Z,1.80
2022-10-13T03:36:47.333Z,1.60
2022-10-13T03:39:14.065Z,2.00
2022-10-13T03:41:41.008Z,1.60
2022-10-13T03:44:07.686Z,1.85
2022-10-13T03:46:34.483Z,1.60
2022-10-13T03:49:01.149Z,1.75
2022-10-13T03:51:27.801Z,1.83
2022-10-13T03:53:54.616Z,2.45
2022-10-13T03:56:23.744Z,1.75
2022-10-13T03:58:54.083Z,1.65
2022-10-13T04:01:22.405Z,1.77
2022-10-13T04:03:50.035Z,2.05
2022-10-13T04:06:17.048Z,2.28
2022-10-13T04:08:43.880Z,1.83
2022-10-13T04:11:12.101Z,2.20
2022-10-13T04:13:38.770Z,2.17
2022-10-13T04:16:16.462Z,3.15
2022-10-13T04:18:44.880Z,2.67
2022-10-13T04:21:14.170Z,2.22
2022-10-13T04:23:40.877Z,2.47
2022-10-13T04:26:07.553Z,2.78
2022-10-13T04:28:36.057Z,2.47
2022-10-13T04:31:03.324Z,3.03
2022-10-13T04:33:30.108Z,3.00
2022-10-13T04:35:57.053Z,2.40
2022-10-13T04:38:23.781Z,3.30
2022-10-13T04:40:50.505Z,2.80
2022-10-13T04:43:17.435Z,2.60
2022-10-13T04:45:44.960Z,2.58
2022-10-13T04:48:11.788Z,2.70
2022-10-13T04:50:38.846Z,3.00
2022-10-13T04:53:05.539Z,2.72
2022-10-13T04:55:34.823Z,2.97
2022-10-13T04:58:01.580Z,3.10
2022-10-13T05:00:28.313Z,3.67
2022-10-13T05:02:55.315Z,3.10
2022-10-13T05:05:21.992Z,3.65
2022-10-13T05:07:48.686Z,3.72
2022-10-13T05:10:15.502Z,4.10
2022-10-13T05:12:42.386Z,3.72
2022-10-13T05:15:09.516Z,4.32
2022-10-13T05:17:36.298Z,3.90
2022-10-13T05:20:03.267Z,4.70
2022-10-13T05:22:29.974Z,4.85
2022-10-13T05:24:56.779Z,4.72
2022-10-13T05:27:23.533Z,4.18
2022-10-13T05:29:52.716Z,4.10
2022-10-13T05:32:19.559Z,4.70
2022-10-13T05:34:48.633Z,4.85
2022-10-13T05:37:17.157Z,5.63
2022-10-13T05:39:48.612Z,4.88
2022-10-13T05:42:15.715Z,5.10
2022-10-13T05:44:42.785Z,5.55
2022-10-13T05:47:09.420Z,6.20
2022-10-13T05:49:42.112Z,5.95
2022-10-13T05:52:10.281Z,5.28
2022-10-13T05:54:46.708Z,5.53
2022-10-13T05:57:15.506Z,5.60
2022-10-13T05:59:45.094Z,6.05
2022-10-13T06:02:12.472Z,7.82
2022-10-13T06:04:41.776Z,6.18
2022-10-13T06:07:08.845Z,6.68
2022-10-13T06:09:37.777Z,6.25
2022-10-13T06:12:05.723Z,5.28
2022-10-13T06:14:32.527Z,5.35
2022-10-13T06:16:59.286Z,5.57
2022-10-13T06:19:25.984Z,5.20
2022-10-13T06:21:52.924Z,5.18
2022-10-13T06:24:19.743Z,4.68
2022-10-13T06:26:46.429Z,4.90
2022-10-13T06:29:13.168Z,4.60
2022-10-13T06:31:40.248Z,4.93
2022-10-13T06:34:07.563Z,5.57
2022-10-13T06:36:36.758Z,4.75
2022-10-13T06:39:03.694Z,5.10
2022-10-13T06:41:30.434Z,5.15
2022-10-13T06:43:57.507Z,4.82
2022-10-13T06:46:24.194Z,5.53
2022-10-13T06:48:51.152Z,5.07
2022-10-13T06:51:17.949Z,5.38
2022-10-13T06:53:44.711Z,5.32
2022-10-13T06:56:11.428Z,5.28
2022-10-13T06:58:38.365Z,5.38
2022-10-13T07:01:05.835Z,5.63
2022-10-13T07:03:32.995Z,5.68
2022-10-13T07:06:03.910Z,4.95
2022-10-13T07:08:31.258Z,5.97
2022-10-13T07:10:58.200Z,6.57
2022-10-13T07:13:25.108Z,6.38
2022-10-13T07:15:51.893Z,5.60
2022-10-13T07:18:18.569Z,5.82
2022-10-13T07:20:45.372Z,5.82
2022-10-13T07:23:12.482Z,6.53
2022-10-13T07:25:39.265Z,5.97
2022-10-13T07:28:06.006Z,5.55
2022-10-13T07:30:32.736Z,6.60
2022-10-13T07:33:00.128Z,6.40
2022-10-13T07:35:30.448Z,7.00
2022-10-13T07:37:57.723Z,6.65
2022-10-13T07:40:24.468Z,7.80
2022-10-13T07:42:51.161Z,6.45
2022-10-13T07:45:17.908Z,8.20
2022-10-13T07:47:44.739Z,7.97
2022-10-13T07:50:11.861Z,8.75
2022-10-13T07:52:38.572Z,7.00
2022-10-13T07:55:05.909Z,8.50
2022-10-13T07:57:33.246Z,7.90
2022-10-13T08:00:00.032Z,7.28
2022-10-13T08:02:27.063Z,7.55
2022-10-13T08:04:53.813Z,8.93
2022-10-13T08:07:20.886Z,8.23
2022-10-13T08:09:47.875Z,8.27
2022-10-13T08:12:14.623Z,8.52
2022-10-13T08:14:41.988Z,6.93
2022-10-13T08:17:08.819Z,7.70
2022-10-13T08:19:35.689Z,8.23
2022-10-13T08:22:05.458Z,8.43
2022-10-13T08:24:34.543Z,9.75
2022-10-13T08:27:01.286Z,9.38
2022-10-13T08:29:28.392Z,8.63
2022-10-13T08:31:55.794Z,7.55
2022-10-13T08:34:23.516Z,7.32
2022-10-13T08:36:53.356Z,6.78
2022-10-13T08:39:21.257Z,6.15
2022-10-13T08:41:47.971Z,5.60
2022-10-13T08:47:29.983Z,4.45
2022-10-13T08:50:00.355Z,4.57
2022-10-13T08:52:29.266Z,4.03
2022-10-13T08:54:56.273Z,4.40
2022-10-13T08:57:23.471Z,4.30
2022-10-13T08:59:50.345Z,3.95
2022-10-13T09:02:27.137Z,4.00
2022-10-13T09:04:53.933Z,4.28
2022-10-13T09:07:28.445Z,3.53
2022-10-13T09:09:58.474Z,3.78
2022-10-13T09:12:25.547Z,3.72
2022-10-13T09:15:07.446Z,3.28
2022-10-13T09:17:34.328Z,3.72
2022-10-13T09:20:07.974Z,3.38
2022-10-13T09:22:36.541Z,3.28
2022-10-13T09:25:11.070Z,3.28
2022-10-13T09:27:50.245Z,3.55
2022-10-13T09:30:32.165Z,3.47
2022-10-13T09:33:04.930Z,3.40
2022-10-13T09:35:35.053Z,2.05
2022-10-13T09:38:05.579Z,2.40
2022-10-13T09:40:32.497Z,1.70
2022-10-13T09:43:00.786Z,2.17
2022-10-13T09:45:27.990Z,1.40
2022-10-13T09:47:58.132Z,2.08
2022-10-13T09:50:29.314Z,2.55
2022-10-13T09:53:16.417Z,2.33
2022-10-13T09:55:46.842Z,2.78
2022-10-13T09:58:25.641Z,2.67
2022-10-13T10:00:52.405Z,2.30
2022-10-13T10:03:33.788Z,2.45
2022-10-13T10:06:02.109Z,2.40
2022-10-13T10:09:03.066Z,2.00
2022-10-13T10:11:44.267Z,2.22
2022-10-13T10:14:27.120Z,2.15
2022-10-13T10:17:25.439Z,2.25
2022-10-13T10:20:17.807Z,2.20
2022-10-13T10:22:52.000Z,2.08
2022-10-13T10:25:43.983Z,2.10
2022-10-13T10:28:22.904Z,2.97
2022-10-13T10:31:18.105Z,1.52
2022-10-13T10:34:14.906Z,1.67
2022-10-13T10:36:51.423Z,1.65
2022-10-13T10:39:32.223Z,1.73
2022-10-13T10:42:21.240Z,1.23
2022-10-13T10:44:48.631Z,1.63
2022-10-13T10:47:40.347Z,2.05
2022-10-13T10:50:07.486Z,1.30
2022-10-13T10:53:00.700Z,1.52
2022-10-13T10:55:38.605Z,1.80
2022-10-13T10:58:50.670Z,1.67
2022-10-13T11:01:22.902Z,1.30
2022-10-13T11:03:55.227Z,1.27
2022-10-13T11:06:32.585Z,1.67
2022-10-13T11:08:59.536Z,6.82
2022-10-13T11:11:28.587Z,6.72
2022-10-13T11:14:06.442Z,6.32
2022-10-13T11:16:40.220Z,7.00
2022-10-13T11:19:28.884Z,6.10
2022-10-13T11:22:10.091Z,6.47
2022-10-13T11:24:38.813Z,6.40
2022-10-13T11:27:08.303Z,6.25
2022-10-13T11:29:44.429Z,5.80
2022-10-13T11:32:26.895Z,5.80
2022-10-13T11:35:05.639Z,5.95
2022-10-13T11:37:35.466Z,5.70
2022-10-13T11:40:08.171Z,6.20
2022-10-13T11:43:23.330Z,5.63
2022-10-13T11:46:20.263Z,5.35
2022-10-13T11:48:59.053Z,5.45
2022-10-13T11:52:03.323Z,4.30
2022-10-13T11:54:34.619Z,4.93
2022-10-13T11:57:01.450Z,5.07
2022-10-13T11:59:33.168Z,4.97
2022-10-13T12:02:09.970Z,4.85
2022-10-13T12:04:37.307Z,5.43
2022-10-13T12:07:05.965Z,4.38
2022-10-13T12:09:33.491Z,5.22
2022-10-13T12:12:07.387Z,4.22
2022-10-13T12:14:43.377Z,4.35
2022-10-13T12:17:29.814Z,3.95
2022-10-13T12:20:00.424Z,3.67
2022-10-13T12:22:28.028Z,5.38
2022-10-13T12:25:02.448Z,2.80
2022-10-13T12:27:32.772Z,2.88
2022-10-13T12:30:02.371Z,2.83
2022-10-13T12:32:30.777Z,2.47
2022-10-13T12:35:09.906Z,2.60
2022-10-13T12:37:37.317Z,2.83
2022-10-13T12:40:05.037Z,2.67
2022-10-13T12:42:32.849Z,2.40
2022-10-13T12:45:00.038Z,2.30
2022-10-13T12:47:45.312Z,1.77
2022-10-13T12:50:29.125Z,1.90
2022-10-13T12:53:12.275Z,1.63
2022-10-13T12:55:59.222Z,1.50
2022-10-13T12:58:27.414Z,1.83
2022-10-13T13:01:12.453Z,1.60
2022-10-13T13:03:40.155Z,2.35
2022-10-13T13:06:20.249Z,1.70
2022-10-13T13:08:46.972Z,1.95
2022-10-13T13:11:24.670Z,2.15
2022-10-13T13:13:51.455Z,1.70
2022-10-13T13:16:19.737Z,1.80
2022-10-13T13:18:47.880Z,1.70
2022-10-13T13:21:18.545Z,1.40
2022-10-13T13:23:51.121Z,1.50
2022-10-13T13:26:22.107Z,1.15
2022-10-13T13:28:55.690Z,1.88
2022-10-13T13:31:23.659Z,1.27
2022-10-13T13:33:50.488Z,1.58
2022-10-13T13:36:22.896Z,1.73
2022-10-13T13:38:49.638Z,1.98
2022-10-13T13:41:16.552Z,2.15
2022-10-13T13:43:43.312Z,1.52
2022-10-13T13:46:18.389Z,1.70
2022-10-13T13:48:45.036Z,2.10
2022-10-13T13:51:11.705Z,1.48
2022-10-13T13:53:38.771Z,1.50
2022-10-13T13:56:05.732Z,1.60
2022-10-13T13:58:32.560Z,1.95
2022-10-13T14:00:59.975Z,1.27
2022-10-13T14:03:26.682Z,2.25
2022-10-13T14:05:53.352Z,1.88
2022-10-13T14:08:20.085Z,1.58
2022-10-13T14:10:46.827Z,1.73
2022-10-13T14:13:13.497Z,1.50
2022-10-13T14:15:40.201Z,1.58
2022-10-13T14:18:06.894Z,1.42
2022-10-13T14:20:33.809Z,1.58
2022-10-13T14:23:00.472Z,2.30
2022-10-13T14:25:27.215Z,1.73
2022-10-13T14:27:54.015Z,1.48
2022-10-13T14:30:20.709Z,1.70
2022-10-13T14:32:47.388Z,2.00
2022-10-13T14:35:14.375Z,2.75
2022-10-13T14:37:41.019Z,2.17
2022-10-13T14:40:08.165Z,2.50
2022-10-13T14:42:34.886Z,2.58
2022-10-13T14:45:02.954Z,2.63
2022-10-13T14:47:29.696Z,2.88
2022-10-13T14:49:56.402Z,2.42
2022-10-13T14:52:23.462Z,2.13
2022-10-13T14:54:50.263Z,1.95
2022-10-13T14:57:17.040Z,2.13
2022-10-13T14:59:43.877Z,1.65
2022-10-13T15:02:11.515Z,1.00
2022-10-13T15:04:38.452Z,1.42
2022-10-13T15:07:05.393Z,1.50
2022-10-13T15:09:45.117Z,1.38
2022-10-13T15:12:19.598Z,1.48
2022-10-13T15:14:46.695Z,1.75
2022-10-13T15:17:13.412Z,1.63
2022-10-13T15:19:40.076Z,1.20
2022-10-13T15:22:06.946Z,1.17
2022-10-13T15:24:33.775Z,1.00
2022-10-13T15:27:00.711Z,0.93
2022-10-13T15:29:27.470Z,1.40
2022-10-13T15:32:06.437Z,1.00
2022-10-13T15:34:33.497Z,1.33
2022-10-13T15:37:00.400Z,1.00
2022-10-13T15:39:27.097Z,0.80
2022-10-13T15:41:53.763Z,0.80
2022-10-13T15:44:21.267Z,0.93
2022-10-13T15:47:06.700Z,1.13
2022-10-13T15:49:37.374Z,1.40
2022-10-13T15:52:04.239Z,1.15
2022-10-13T15:54:31.177Z,1.70
2022-10-13T15:56:57.884Z,1.33
2022-10-13T15:59:25.560Z,1.10
2022-10-13T16:01:52.589Z,0.90
2022-10-13T16:04:19.291Z,0.93
2022-10-13T16:06:46.300Z,1.13
2022-10-13T16:09:13.193Z,0.93
2022-10-13T16:11:39.975Z,1.13
2022-10-13T16:14:06.658Z,1.25
2022-10-13T16:16:33.436Z,1.20
2022-10-13T16:19:02.784Z,1.40
2022-10-13T16:21:29.588Z,1.38
2022-10-13T16:23:56.755Z,1.15
2022-10-13T16:26:23.911Z,1.10
2022-10-13T16:28:56.016Z,1.60
2022-10-13T16:31:22.875Z,1.45
2022-10-13T16:33:49.712Z,1.70
2022-10-13T16:36:26.593Z,1.60
2022-10-13T16:38:54.774Z,1.98
2022-10-13T16:41:21.697Z,1.73
2022-10-13T16:43:48.475Z,1.70
2022-10-13T16:46:17.728Z,2.00
2022-10-13T16:48:44.620Z,1.83
2022-10-13T16:51:19.976Z,1.80
2022-10-13T16:53:50.762Z,1.50
2022-10-13T16:56:22.063Z,1.42
2022-10-13T16:58:49.968Z,2.03
2022-10-13T17:01:16.863Z,1.33
2022-10-13T17:03:44.311Z,1.58
2022-10-13T17:06:11.602Z,1.42
2022-10-13T17:08:38.357Z,1.50
2022-10-13T17:11:05.433Z,2.03
2022-10-13T17:13:32.416Z,1.73
2022-10-13T17:15:59.285Z,2.10
2022-10-13T17:18:26.398Z,1.90
2022-10-13T17:21:01.160Z,2.30
2022-10-13T17:23:28.380Z,2.03
2022-10-13T17:25:55.379Z,2.33
2022-10-13T17:28:22.428Z,2.30
2022-10-13T17:30:59.458Z,2.28
2022-10-13T17:33:29.738Z,3.03
2022-10-13T17:36:04.873Z,3.20
2022-10-13T17:38:31.756Z,3.15
2022-10-13T17:41:02.732Z,2.30
2022-10-13T17:43:29.750Z,2.70
2022-10-13T17:46:12.171Z,3.20
2022-10-13T17:48:43.850Z,2.20
2022-10-13T17:51:12.343Z,2.75
2022-10-13T17:53:39.609Z,2.45
2022-10-13T17:56:08.232Z,2.03
2022-10-13T17:58:38.687Z,2.67
2022-10-13T18:01:13.374Z,2.40
2022-10-13T18:03:44.896Z,3.10
2022-10-13T18:06:12.099Z,5.75
2022-10-13T18:08:39.128Z,6.43
2022-10-13T18:11:10.654Z,6.18
2022-10-13T18:13:37.608Z,4.13
2022-10-13T18:16:09.113Z,4.20
2022-10-13T18:18:35.982Z,2.88
2022-10-13T18:21:07.477Z,3.47
2022-10-13T18:23:35.251Z,2.90
2022-10-13T18:26:06.063Z,3.75
2022-10-13T18:28:33.647Z,5.50
2022-10-13T18:31:08.061Z,3.20
2022-10-13T18:33:35.144Z,3.50
2022-10-13T18:36:02.363Z,3.50
2022-10-13T18:38:29.169Z,4.18
2022-10-13T18:40:59.147Z,7.35
2022-10-13T18:43:25.934Z,9.77
2022-10-13T18:45:52.638Z,10.52
2022-10-13T18:48:20.094Z,10.45
2022-10-13T18:50:46.745Z,9.63
2022-10-13T18:53:13.537Z,8.75
2022-10-13T18:55:42.863Z,9.82
2022-10-13T18:58:09.945Z,10.73
2022-10-13T19:00:36.792Z,10.13
2022-10-13T19:03:03.773Z,9.93
2022-10-13T19:05:30.451Z,6.95
2022-10-13T19:07:57.507Z,6.72
2022-10-13T19:10:24.493Z,9.65
2022-10-13T19:12:51.217Z,7.03
2022-10-13T19:15:18.040Z,7.50
2022-10-13T19:17:45.373Z,9.00
2022-10-13T19:20:12.235Z,9.48
2022-10-13T19:22:39.036Z,10.60
2022-10-13T19:25:06.566Z,12.88
2022-10-13T19:27:33.497Z,13.65
2022-10-13T19:30:00.250Z,16.02
2022-10-13T19:32:26.924Z,16.90
2022-10-13T19:34:56.837Z,16.13
2022-10-13T19:37:23.612Z,18.38
2022-10-13T19:39:50.698Z,15.73
2022-10-13T19:42:17.597Z,17.80
2022-10-13T19:44:44.273Z,19.45
2022-10-13T19:47:11.449Z,12.55
2022-10-13T19:49:38.159Z,10.45
2022-10-13T19:52:05.075Z,8.75
2022-10-13T19:54:34.843Z,11.32
2022-10-13T19:57:01.829Z,12.63
2022-10-13T19:59:28.622Z,14.05
2022-10-13T20:01:56.593Z,12.52
2022-10-13T20:04:23.435Z,14.23
2022-10-13T20:06:50.593Z,13.73
2022-10-13T20:09:18.295Z,12.57
2022-10-13T20:11:46.473Z,12.95
2022-10-13T20:14:14.237Z,10.77
2022-10-13T20:16:41.309Z,12.20
2022-10-13T20:19:08.182Z,9.55
2022-10-13T20:21:34.917Z,10.52
2022-10-13T20:24:01.603Z,11.85
2022-10-13T20:26:28.507Z,10.80
2022-10-13T20:28:55.342Z,11.98
2022-10-13T20:31:22.490Z,10.40
2022-10-13T20:33:52.733Z,10.80
2022-10-13T20:36:19.650Z,11.57
2022-10-13T20:38:47.470Z,11.25
2022-10-13T20:41:28.702Z,11.45
2022-10-13T20:43:56.567Z,11.77
2022-10-13T20:46:23.926Z,12.65
2022-10-13T20:49:09.867Z,14.55
2022-10-13T20:51:37.494Z,14.25
2022-10-13T20:54:04.597Z,13.65
2022-10-13T20:56:31.321Z,13.15
2022-10-13T20:59:02.976Z,11.73
2022-10-13T21:01:30.045Z,8.95
2022-10-13T21:03:56.873Z,8.02
2022-10-13T21:06:24.287Z,6.10
2022-10-13T21:08:51.475Z,6.32
2022-10-13T21:11:20.082Z,5.88
2022-10-13T21:13:47.031Z,8.55
2022-10-13T21:16:15.635Z,6.78
2022-10-13T21:18:49.324Z,6.35
2022-10-13T21:21:30.562Z,6.30
2022-10-13T21:23:58.802Z,5.78
2022-10-13T21:26:26.923Z,6.18
2022-10-13T21:28:53.958Z,5.72
2022-10-13T21:31:21.756Z,6.22
2022-10-13T21:33:48.687Z,5.50
2022-10-13T21:36:20.545Z,4.82
2022-10-13T21:38:49.772Z,5.00
2022-10-13T21:41:16.646Z,5.10
2022-10-13T21:43:43.359Z,4.97
2022-10-13T21:46:18.447Z,5.50
2022-10-13T21:48:46.004Z,5.88
2022-10-13T21:51:20.125Z,6.88
2022-10-13T21:53:50.932Z,7.13
2022-10-13T21:56:18.028Z,5.53
2022-10-13T21:58:44.903Z,5.38
2022-10-13T22:01:11.792Z,6.28
2022-10-13T22:03:38.792Z,4.53
2022-10-13T22:06:06.688Z,5.22
2022-10-13T22:08:38.495Z,5.35
2022-10-13T22:11:06.302Z,4.80
2022-10-13T22:13:33.036Z,5.32
2022-10-13T22:16:07.405Z,4.75
2022-10-13T22:18:34.152Z,4.78
2022-10-13T22:21:04.943Z,5.10
2022-10-13T22:23:31.754Z,4.65
2022-10-13T22:25:58.861Z,5.65
2022-10-13T22:28:25.971Z,5.22
2022-10-13T22:30:52.822Z,4.93
2022-10-13T22:33:19.699Z,5.70
2022-10-13T22:35:46.973Z,4.88
2022-10-13T22:38:14.283Z,5.57
2022-10-13T22:40:41.614Z,4.97
2022-10-13T22:43:08.394Z,5.22
2022-10-13T22:45:35.093Z,5.20
2022-10-13T22:48:02.232Z,5.22
2022-10-13T22:50:29.232Z,5.53
2022-10-13T22:52:55.920Z,4.95
2022-10-13T22:55:22.734Z,5.03
2022-10-13T22:57:49.597Z,4.82
2022-10-13T23:00:16.604Z,4.63
2022-10-13T23:02:43.342Z,4.40
2022-10-13T23:05:10.042Z,4.25
2022-10-13T23:07:36.743Z,4.97
2022-10-13T23:10:03.833Z,6.05
2022-10-13T23:12:30.615Z,4.65
2022-10-13T23:14:57.313Z,7.13
2022-10-13T23:17:24.370Z,4.45
2022-10-13T23:19:51.165Z,5.13
2022-10-13T23:22:17.886Z,5.00
2022-10-13T23:24:44.539Z,5.20
2022-10-13T23:27:11.265Z,5.18
2022-10-13T23:29:40.291Z,4.28
2022-10-13T23:32:09.757Z,5.25
2022-10-13T23:34:36.804Z,5.68
2022-10-13T23:37:03.627Z,5.22
2022-10-13T23:39:30.330Z,5.32
2022-10-13T23:41:57.061Z,5.45
2022-10-13T23:44:23.767Z,5.68
2022-10-13T23:46:50.481Z,5.15
2022-10-13T23:49:17.138Z,5.05
2022-10-13T23:51:44.111Z,4.90
2022-10-13T23:54:11.164Z,4.68
2022-10-13T23:56:38.564Z,4.75
2022-10-13T23:59:05.805Z,5.38
